sensor_id;sensor_type;location;lat;lon;timestamp;temperature;humidity
5304;DHT22;2674;49.722;10.892;2023-05-07T00:00:37;12.60;31.60
5304;DHT22;2674;49.722;10.892;2023-05-07T00:03:03;12.50;35.00
5304;DHT22;2674;49.722;10.892;2023-05-07T00:05:29;12.40;43.30
5304;DHT22;2674;49.722;10.892;2023-05-07T00:07:55;12.40;46.50
5304;DHT22;2674;49.722;10.892;2023-05-07T00:10:21;12.40;43.90
5304;DHT22;2674;49.722;10.892;2023-05-07T00:12:46;12.30;44.90
5304;DHT22;2674;49.722;10.892;2023-05-07T00:15:12;12.30;49.70
5304;DHT22;2674;49.722;10.892;2023-05-07T00:17:38;12.30;57.20
5304;DHT22;2674;49.722;10.892;2023-05-07T00:20:04;12.20;65.00
5304;DHT22;2674;49.722;10.892;2023-05-07T00:22:31;12.20;66.10
5304;DHT22;2674;49.722;10.892;2023-05-07T00:24:58;12.20;73.10
5304;DHT22;2674;49.722;10.892;2023-05-07T00:27:24;12.20;65.00
5304;DHT22;2674;49.722;10.892;2023-05-07T00:29:50;12.20;58.90
5304;DHT22;2674;49.722;10.892;2023-05-07T00:32:16;12.20;54.50
5304;DHT22;2674;49.722;10.892;2023-05-07T00:34:43;12.20;54.10
5304;DHT22;2674;49.722;10.892;2023-05-07T00:37:09;12.20;54.30
5304;DHT22;2674;49.722;10.892;2023-05-07T00:39:35;12.20;43.90
5304;DHT22;2674;49.722;10.892;2023-05-07T00:42:01;12.20;43.40
5304;DHT22;2674;49.722;10.892;2023-05-07T00:44:28;12.30;47.80
5304;DHT22;2674;49.722;10.892;2023-05-07T00:46:57;12.30;31.20
5304;DHT22;2674;49.722;10.892;2023-05-07T00:49:26;12.30;28.60
5304;DHT22;2674;49.722;10.892;2023-05-07T00:51:55;12.40;32.50
5304;DHT22;2674;49.722;10.892;2023-05-07T00:54:21;12.30;29.60
5304;DHT22;2674;49.722;10.892;2023-05-07T00:56:47;12.40;22.40
5304;DHT22;2674;49.722;10.892;2023-05-07T00:59:13;12.40;18.20
5304;DHT22;2674;49.722;10.892;2023-05-07T01:01:39;12.40;21.80
5304;DHT22;2674;49.722;10.892;2023-05-07T01:04:05;12.40;30.50
5304;DHT22;2674;49.722;10.892;2023-05-07T01:06:32;12.40;35.20
5304;DHT22;2674;49.722;10.892;2023-05-07T01:08:59;12.40;37.90
5304;DHT22;2674;49.722;10.892;2023-05-07T01:11:26;12.40;40.70
5304;DHT22;2674;49.722;10.892;2023-05-07T01:13:51;12.30;54.60
5304;DHT22;2674;49.722;10.892;2023-05-07T01:16:18;12.30;71.00
5304;DHT22;2674;49.722;10.892;2023-05-07T01:18:47;12.30;78.00
5304;DHT22;2674;49.722;10.892;2023-05-07T01:21:16;12.30;87.10
5304;DHT22;2674;49.722;10.892;2023-05-07T01:23:43;12.30;92.40
5304;DHT22;2674;49.722;10.892;2023-05-07T01:26:09;12.30;98.90
5304;DHT22;2674;49.722;10.892;2023-05-07T01:28:35;12.20;94.90
5304;DHT22;2674;49.722;10.892;2023-05-07T01:31:03;12.20;96.00
5304;DHT22;2674;49.722;10.892;2023-05-07T01:33:32;12.20;91.00
5304;DHT22;2674;49.722;10.892;2023-05-07T01:35:59;12.20;97.70
5304;DHT22;2674;49.722;10.892;2023-05-07T01:38:28;12.20;99.90
5304;DHT22;2674;49.722;10.892;2023-05-07T01:40:54;12.20;99.90
5304;DHT22;2674;49.722;10.892;2023-05-07T01:43:20;12.20;99.90
5304;DHT22;2674;49.722;10.892;2023-05-07T01:45:46;12.10;99.90
5304;DHT22;2674;49.722;10.892;2023-05-07T01:48:14;12.20;99.80
5304;DHT22;2674;49.722;10.892;2023-05-07T01:50:42;12.10;94.30
5304;DHT22;2674;49.722;10.892;2023-05-07T01:53:08;12.20;93.50
5304;DHT22;2674;49.722;10.892;2023-05-07T01:55:34;12.20;94.50
5304;DHT22;2674;49.722;10.892;2023-05-07T01:58:02;12.20;93.10
5304;DHT22;2674;49.722;10.892;2023-05-07T02:00:28;12.20;92.80
5304;DHT22;2674;49.722;10.892;2023-05-07T02:02:54;12.20;88.70
5304;DHT22;2674;49.722;10.892;2023-05-07T02:05:20;12.20;91.30
5304;DHT22;2674;49.722;10.892;2023-05-07T02:07:46;12.20;99.90
5304;DHT22;2674;49.722;10.892;2023-05-07T02:10:12;12.10;99.90
5304;DHT22;2674;49.722;10.892;2023-05-07T02:12:40;12.10;99.90
5304;DHT22;2674;49.722;10.892;2023-05-07T02:15:07;12.10;99.90
5304;DHT22;2674;49.722;10.892;2023-05-07T02:17:32;12.10;77.30
5304;DHT22;2674;49.722;10.892;2023-05-07T02:19:59;12.20;49.30
5304;DHT22;2674;49.722;10.892;2023-05-07T02:22:25;12.30;36.00
5304;DHT22;2674;49.722;10.892;2023-05-07T02:24:51;12.30;33.20
5304;DHT22;2674;49.722;10.892;2023-05-07T02:27:17;12.30;36.50
5304;DHT22;2674;49.722;10.892;2023-05-07T02:29:42;12.30;58.90
5304;DHT22;2674;49.722;10.892;2023-05-07T02:32:08;12.30;69.10
5304;DHT22;2674;49.722;10.892;2023-05-07T02:34:34;12.20;87.70
5304;DHT22;2674;49.722;10.892;2023-05-07T02:36:59;12.10;95.60
5304;DHT22;2674;49.722;10.892;2023-05-07T02:39:25;12.10;99.90
5304;DHT22;2674;49.722;10.892;2023-05-07T02:41:51;11.90;99.90
5304;DHT22;2674;49.722;10.892;2023-05-07T02:44:17;11.90;99.90
5304;DHT22;2674;49.722;10.892;2023-05-07T02:46:43;11.80;99.90
5304;DHT22;2674;49.722;10.892;2023-05-07T02:49:08;11.80;99.90
5304;DHT22;2674;49.722;10.892;2023-05-07T02:51:34;11.80;99.90
5304;DHT22;2674;49.722;10.892;2023-05-07T02:54:00;11.80;99.90
5304;DHT22;2674;49.722;10.892;2023-05-07T02:56:26;11.80;99.90
5304;DHT22;2674;49.722;10.892;2023-05-07T02:58:52;11.80;99.90
5304;DHT22;2674;49.722;10.892;2023-05-07T03:01:18;11.70;99.90
5304;DHT22;2674;49.722;10.892;2023-05-07T03:03:44;11.70;99.90
5304;DHT22;2674;49.722;10.892;2023-05-07T03:06:13;11.70;99.90
5304;DHT22;2674;49.722;10.892;2023-05-07T03:08:39;11.70;99.90
5304;DHT22;2674;49.722;10.892;2023-05-07T03:11:05;11.70;99.90
5304;DHT22;2674;49.722;10.892;2023-05-07T03:13:30;11.70;99.90
5304;DHT22;2674;49.722;10.892;2023-05-07T03:15:56;11.60;99.90
5304;DHT22;2674;49.722;10.892;2023-05-07T03:18:22;11.60;99.90
5304;DHT22;2674;49.722;10.892;2023-05-07T03:20:48;11.50;99.90
5304;DHT22;2674;49.722;10.892;2023-05-07T03:23:14;11.50;99.90
5304;DHT22;2674;49.722;10.892;2023-05-07T03:25:40;11.40;99.90
5304;DHT22;2674;49.722;10.892;2023-05-07T03:28:05;11.30;99.90
5304;DHT22;2674;49.722;10.892;2023-05-07T03:30:31;11.20;99.90
5304;DHT22;2674;49.722;10.892;2023-05-07T03:32:57;11.20;99.90
5304;DHT22;2674;49.722;10.892;2023-05-07T03:35:23;11.10;99.90
5304;DHT22;2674;49.722;10.892;2023-05-07T03:37:48;11.10;99.90
5304;DHT22;2674;49.722;10.892;2023-05-07T03:40:14;11.10;99.90
5304;DHT22;2674;49.722;10.892;2023-05-07T03:42:40;11.00;99.90
5304;DHT22;2674;49.722;10.892;2023-05-07T03:45:07;11.10;99.90
5304;DHT22;2674;49.722;10.892;2023-05-07T03:47:33;11.10;99.90
5304;DHT22;2674;49.722;10.892;2023-05-07T03:49:58;11.00;99.90
5304;DHT22;2674;49.722;10.892;2023-05-07T03:52:24;11.10;99.90
5304;DHT22;2674;49.722;10.892;2023-05-07T03:54:52;11.10;99.90
5304;DHT22;2674;49.722;10.892;2023-05-07T03:57:19;11.20;99.90
5304;DHT22;2674;49.722;10.892;2023-05-07T03:59:44;11.30;99.90
5304;DHT22;2674;49.722;10.892;2023-05-07T04:02:10;11.30;99.90
5304;DHT22;2674;49.722;10.892;2023-05-07T04:04:36;11.40;99.90
5304;DHT22;2674;49.722;10.892;2023-05-07T04:07:02;11.40;99.90
5304;DHT22;2674;49.722;10.892;2023-05-07T04:09:28;11.40;99.90
5304;DHT22;2674;49.722;10.892;2023-05-07T04:11:54;11.40;99.90
5304;DHT22;2674;49.722;10.892;2023-05-07T04:14:20;11.40;99.90
5304;DHT22;2674;49.722;10.892;2023-05-07T04:16:46;11.40;99.90
5304;DHT22;2674;49.722;10.892;2023-05-07T04:19:11;11.40;99.90
5304;DHT22;2674;49.722;10.892;2023-05-07T04:21:37;11.40;99.90
5304;DHT22;2674;49.722;10.892;2023-05-07T04:24:03;11.40;99.90
5304;DHT22;2674;49.722;10.892;2023-05-07T04:26:29;11.30;99.90
5304;DHT22;2674;49.722;10.892;2023-05-07T04:28:55;11.30;99.90
5304;DHT22;2674;49.722;10.892;2023-05-07T04:31:22;11.40;99.90
5304;DHT22;2674;49.722;10.892;2023-05-07T04:33:47;11.40;99.90
5304;DHT22;2674;49.722;10.892;2023-05-07T04:36:13;11.40;99.90
5304;DHT22;2674;49.722;10.892;2023-05-07T04:38:39;11.50;99.90
5304;DHT22;2674;49.722;10.892;2023-05-07T04:41:06;11.60;99.90
5304;DHT22;2674;49.722;10.892;2023-05-07T04:43:32;11.70;99.90
5304;DHT22;2674;49.722;10.892;2023-05-07T04:45:58;11.70;99.90
5304;DHT22;2674;49.722;10.892;2023-05-07T04:48:24;11.80;99.90
5304;DHT22;2674;49.722;10.892;2023-05-07T04:50:53;12.00;99.90
5304;DHT22;2674;49.722;10.892;2023-05-07T04:53:20;12.20;99.90
5304;DHT22;2674;49.722;10.892;2023-05-07T04:55:47;12.40;99.90
5304;DHT22;2674;49.722;10.892;2023-05-07T04:58:13;12.60;99.90
5304;DHT22;2674;49.722;10.892;2023-05-07T05:00:39;12.90;99.90
5304;DHT22;2674;49.722;10.892;2023-05-07T05:03:07;13.00;90.00
5304;DHT22;2674;49.722;10.892;2023-05-07T05:05:33;13.20;83.20
5304;DHT22;2674;49.722;10.892;2023-05-07T05:07:59;13.30;86.60
5304;DHT22;2674;49.722;10.892;2023-05-07T05:10:25;13.50;89.20
5304;DHT22;2674;49.722;10.892;2023-05-07T05:12:51;13.70;37.70
5304;DHT22;2674;49.722;10.892;2023-05-07T05:15:17;13.80;9.30
5304;DHT22;2674;49.722;10.892;2023-05-07T05:17:42;13.80;7.20
5304;DHT22;2674;49.722;10.892;2023-05-07T05:20:08;13.70;8.80
5304;DHT22;2674;49.722;10.892;2023-05-07T05:22:36;13.60;12.30
5304;DHT22;2674;49.722;10.892;2023-05-07T05:25:02;13.60;6.90
5304;DHT22;2674;49.722;10.892;2023-05-07T05:27:28;13.50;20.70
5304;DHT22;2674;49.722;10.892;2023-05-07T05:29:54;13.40;17.60
5304;DHT22;2674;49.722;10.892;2023-05-07T05:32:20;13.40;19.30
5304;DHT22;2674;49.722;10.892;2023-05-07T05:34:46;13.40;13.50
5304;DHT22;2674;49.722;10.892;2023-05-07T05:37:12;13.30;14.50
5304;DHT22;2674;49.722;10.892;2023-05-07T05:39:38;13.20;21.00
5304;DHT22;2674;49.722;10.892;2023-05-07T05:42:04;13.20;19.70
5304;DHT22;2674;49.722;10.892;2023-05-07T05:44:30;13.30;21.20
5304;DHT22;2674;49.722;10.892;2023-05-07T05:46:55;13.50;36.00
5304;DHT22;2674;49.722;10.892;2023-05-07T05:49:23;13.60;21.90
5304;DHT22;2674;49.722;10.892;2023-05-07T05:51:48;13.90;12.90
5304;DHT22;2674;49.722;10.892;2023-05-07T05:54:14;14.20;1.00
5304;DHT22;2674;49.722;10.892;2023-05-07T05:56:41;14.40;1.00
5304;DHT22;2674;49.722;10.892;2023-05-07T05:59:07;14.70;1.00
5304;DHT22;2674;49.722;10.892;2023-05-07T06:01:33;14.80;1.00
5304;DHT22;2674;49.722;10.892;2023-05-07T06:03:59;14.90;1.00
5304;DHT22;2674;49.722;10.892;2023-05-07T06:06:25;14.90;1.00
5304;DHT22;2674;49.722;10.892;2023-05-07T06:08:51;14.90;1.00
5304;DHT22;2674;49.722;10.892;2023-05-07T06:11:17;14.80;1.00
5304;DHT22;2674;49.722;10.892;2023-05-07T06:13:43;14.70;1.00
5304;DHT22;2674;49.722;10.892;2023-05-07T06:16:08;14.70;1.00
5304;DHT22;2674;49.722;10.892;2023-05-07T06:18:34;14.60;1.00
5304;DHT22;2674;49.722;10.892;2023-05-07T06:21:01;14.50;1.00
5304;DHT22;2674;49.722;10.892;2023-05-07T06:23:27;14.40;1.00
5304;DHT22;2674;49.722;10.892;2023-05-07T06:25:53;14.50;1.00
5304;DHT22;2674;49.722;10.892;2023-05-07T06:28:19;14.50;1.00
5304;DHT22;2674;49.722;10.892;2023-05-07T06:30:45;14.60;1.00
5304;DHT22;2674;49.722;10.892;2023-05-07T06:33:11;14.60;1.00
5304;DHT22;2674;49.722;10.892;2023-05-07T06:35:37;14.70;1.00
5304;DHT22;2674;49.722;10.892;2023-05-07T06:38:03;14.70;1.00
5304;DHT22;2674;49.722;10.892;2023-05-07T06:40:28;14.80;1.00
5304;DHT22;2674;49.722;10.892;2023-05-07T06:42:54;14.90;1.00
5304;DHT22;2674;49.722;10.892;2023-05-07T06:45:20;14.90;1.00
5304;DHT22;2674;49.722;10.892;2023-05-07T06:47:46;15.00;1.00
5304;DHT22;2674;49.722;10.892;2023-05-07T06:50:12;15.10;1.00
5304;DHT22;2674;49.722;10.892;2023-05-07T06:52:38;15.20;1.00
5304;DHT22;2674;49.722;10.892;2023-05-07T06:55:04;15.30;1.00
5304;DHT22;2674;49.722;10.892;2023-05-07T06:57:30;15.40;1.00
5304;DHT22;2674;49.722;10.892;2023-05-07T06:59:56;15.40;1.00
5304;DHT22;2674;49.722;10.892;2023-05-07T07:02:22;15.50;1.00
5304;DHT22;2674;49.722;10.892;2023-05-07T07:04:48;15.50;1.00
5304;DHT22;2674;49.722;10.892;2023-05-07T07:07:13;15.50;1.00
5304;DHT22;2674;49.722;10.892;2023-05-07T07:09:39;15.60;1.00
5304;DHT22;2674;49.722;10.892;2023-05-07T07:12:05;15.60;1.00
5304;DHT22;2674;49.722;10.892;2023-05-07T07:14:31;15.70;1.00
5304;DHT22;2674;49.722;10.892;2023-05-07T07:16:57;15.80;1.00
5304;DHT22;2674;49.722;10.892;2023-05-07T07:19:23;15.80;1.00
5304;DHT22;2674;49.722;10.892;2023-05-07T07:21:49;15.90;1.00
5304;DHT22;2674;49.722;10.892;2023-05-07T07:24:15;16.20;1.00
5304;DHT22;2674;49.722;10.892;2023-05-07T07:26:47;16.30;1.00
5304;DHT22;2674;49.722;10.892;2023-05-07T07:29:13;16.40;1.00
5304;DHT22;2674;49.722;10.892;2023-05-07T07:31:40;16.60;1.00
5304;DHT22;2674;49.722;10.892;2023-05-07T07:34:06;16.80;1.00
5304;DHT22;2674;49.722;10.892;2023-05-07T07:36:32;17.00;1.00
5304;DHT22;2674;49.722;10.892;2023-05-07T07:38:58;17.10;1.00
5304;DHT22;2674;49.722;10.892;2023-05-07T07:41:23;17.30;1.00
5304;DHT22;2674;49.722;10.892;2023-05-07T07:43:49;17.40;1.00
5304;DHT22;2674;49.722;10.892;2023-05-07T07:46:15;17.50;1.00
5304;DHT22;2674;49.722;10.892;2023-05-07T07:48:41;17.70;1.00
5304;DHT22;2674;49.722;10.892;2023-05-07T07:51:07;17.70;1.00
5304;DHT22;2674;49.722;10.892;2023-05-07T07:53:33;17.80;1.00
5304;DHT22;2674;49.722;10.892;2023-05-07T07:55:59;17.80;1.00
5304;DHT22;2674;49.722;10.892;2023-05-07T07:58:25;17.60;1.00
5304;DHT22;2674;49.722;10.892;2023-05-07T08:00:51;17.50;1.00
5304;DHT22;2674;49.722;10.892;2023-05-07T08:03:17;17.70;1.00
5304;DHT22;2674;49.722;10.892;2023-05-07T08:05:43;17.90;1.00
5304;DHT22;2674;49.722;10.892;2023-05-07T08:08:09;18.10;1.00
5304;DHT22;2674;49.722;10.892;2023-05-07T08:10:35;18.30;1.00
5304;DHT22;2674;49.722;10.892;2023-05-07T08:13:03;18.50;1.00
5304;DHT22;2674;49.722;10.892;2023-05-07T08:15:30;18.60;1.00
5304;DHT22;2674;49.722;10.892;2023-05-07T08:17:56;18.80;1.00
5304;DHT22;2674;49.722;10.892;2023-05-07T08:20:23;19.00;1.00
5304;DHT22;2674;49.722;10.892;2023-05-07T08:22:49;19.20;1.00
5304;DHT22;2674;49.722;10.892;2023-05-07T08:25:16;19.30;1.00
5304;DHT22;2674;49.722;10.892;2023-05-07T08:27:42;19.40;1.00
5304;DHT22;2674;49.722;10.892;2023-05-07T08:30:10;19.50;1.00
5304;DHT22;2674;49.722;10.892;2023-05-07T08:32:36;19.40;1.00
5304;DHT22;2674;49.722;10.892;2023-05-07T08:35:01;19.50;1.00
5304;DHT22;2674;49.722;10.892;2023-05-07T08:37:27;19.60;1.00
5304;DHT22;2674;49.722;10.892;2023-05-07T08:39:53;19.60;1.00
5304;DHT22;2674;49.722;10.892;2023-05-07T08:42:22;19.50;1.00
5304;DHT22;2674;49.722;10.892;2023-05-07T08:44:51;19.50;1.00
5304;DHT22;2674;49.722;10.892;2023-05-07T08:47:22;19.60;1.00
5304;DHT22;2674;49.722;10.892;2023-05-07T08:49:53;19.70;1.00
5304;DHT22;2674;49.722;10.892;2023-05-07T08:52:19;19.60;1.00
5304;DHT22;2674;49.722;10.892;2023-05-07T08:54:45;19.50;1.00
5304;DHT22;2674;49.722;10.892;2023-05-07T08:57:11;19.40;1.00
5304;DHT22;2674;49.722;10.892;2023-05-07T08:59:40;19.60;1.00
5304;DHT22;2674;49.722;10.892;2023-05-07T09:02:09;19.90;1.00
5304;DHT22;2674;49.722;10.892;2023-05-07T09:04:36;20.10;1.00
5304;DHT22;2674;49.722;10.892;2023-05-07T09:07:02;20.30;1.00
5304;DHT22;2674;49.722;10.892;2023-05-07T09:09:32;20.40;1.00
5304;DHT22;2674;49.722;10.892;2023-05-07T09:11:58;20.60;1.00
5304;DHT22;2674;49.722;10.892;2023-05-07T09:14:25;20.80;1.00
5304;DHT22;2674;49.722;10.892;2023-05-07T09:16:54;20.80;1.00
5304;DHT22;2674;49.722;10.892;2023-05-07T09:19:24;20.80;1.00
5304;DHT22;2674;49.722;10.892;2023-05-07T09:21:57;20.90;1.00
5304;DHT22;2674;49.722;10.892;2023-05-07T09:24:23;21.00;1.00
5304;DHT22;2674;49.722;10.892;2023-05-07T09:26:48;21.10;1.00
5304;DHT22;2674;49.722;10.892;2023-05-07T09:29:15;20.90;1.00
5304;DHT22;2674;49.722;10.892;2023-05-07T09:31:42;20.90;1.00
5304;DHT22;2674;49.722;10.892;2023-05-07T09:34:08;20.70;1.00
5304;DHT22;2674;49.722;10.892;2023-05-07T09:36:34;20.80;1.00
5304;DHT22;2674;49.722;10.892;2023-05-07T09:39:01;20.90;1.00
5304;DHT22;2674;49.722;10.892;2023-05-07T09:41:27;20.90;1.00
5304;DHT22;2674;49.722;10.892;2023-05-07T09:43:55;20.80;1.00
5304;DHT22;2674;49.722;10.892;2023-05-07T09:46:27;20.80;1.00
5304;DHT22;2674;49.722;10.892;2023-05-07T09:48:57;20.80;1.00
5304;DHT22;2674;49.722;10.892;2023-05-07T09:51:41;20.90;1.00
5304;DHT22;2674;49.722;10.892;2023-05-07T09:54:09;21.00;1.00
5304;DHT22;2674;49.722;10.892;2023-05-07T09:56:35;21.10;1.00
5304;DHT22;2674;49.722;10.892;2023-05-07T09:59:03;21.20;1.00
5304;DHT22;2674;49.722;10.892;2023-05-07T10:01:31;21.40;1.00
5304;DHT22;2674;49.722;10.892;2023-05-07T10:03:58;21.60;1.00
5304;DHT22;2674;49.722;10.892;2023-05-07T10:06:25;21.70;1.00
5304;DHT22;2674;49.722;10.892;2023-05-07T10:08:52;21.80;1.00
5304;DHT22;2674;49.722;10.892;2023-05-07T10:11:18;21.90;1.00
5304;DHT22;2674;49.722;10.892;2023-05-07T10:13:46;21.90;1.00
5304;DHT22;2674;49.722;10.892;2023-05-07T10:16:13;22.00;1.00
5304;DHT22;2674;49.722;10.892;2023-05-07T10:18:41;22.30;1.00
5304;DHT22;2674;49.722;10.892;2023-05-07T10:21:20;22.40;1.00
5304;DHT22;2674;49.722;10.892;2023-05-07T10:23:52;22.70;1.00
5304;DHT22;2674;49.722;10.892;2023-05-07T10:26:20;22.70;1.00
5304;DHT22;2674;49.722;10.892;2023-05-07T10:28:50;22.90;1.00
5304;DHT22;2674;49.722;10.892;2023-05-07T10:31:59;23.00;1.00
5304;DHT22;2674;49.722;10.892;2023-05-07T10:34:13;22.60;1.00
5304;DHT22;2674;49.722;10.892;2023-05-07T10:36:40;22.40;1.00
5304;DHT22;2674;49.722;10.892;2023-05-07T10:39:07;22.50;1.00
5304;DHT22;2674;49.722;10.892;2023-05-07T10:41:33;22.40;1.00
5304;DHT22;2674;49.722;10.892;2023-05-07T10:43:59;22.50;1.00
5304;DHT22;2674;49.722;10.892;2023-05-07T10:46:27;22.60;1.00
5304;DHT22;2674;49.722;10.892;2023-05-07T10:51:30;22.70;1.00
5304;DHT22;2674;49.722;10.892;2023-05-07T10:56:38;22.60;1.00
5304;DHT22;2674;49.722;10.892;2023-05-07T11:01:59;22.60;1.00
5304;DHT22;2674;49.722;10.892;2023-05-07T11:04:28;22.60;1.00
5304;DHT22;2674;49.722;10.892;2023-05-07T11:15:12;22.70;1.00
5304;DHT22;2674;49.722;10.892;2023-05-07T11:17:57;22.90;1.00
5304;DHT22;2674;49.722;10.892;2023-05-07T11:25:42;23.10;1.00
5304;DHT22;2674;49.722;10.892;2023-05-07T11:28:08;23.30;1.00
5304;DHT22;2674;49.722;10.892;2023-05-07T11:30:36;23.60;1.00
5304;DHT22;2674;49.722;10.892;2023-05-07T11:33:02;23.80;1.00
5304;DHT22;2674;49.722;10.892;2023-05-07T11:35:28;23.80;1.00
5304;DHT22;2674;49.722;10.892;2023-05-07T11:37:59;23.80;1.00
5304;DHT22;2674;49.722;10.892;2023-05-07T11:40:26;23.60;1.00
5304;DHT22;2674;49.722;10.892;2023-05-07T11:42:51;23.60;1.00
5304;DHT22;2674;49.722;10.892;2023-05-07T11:45:23;23.50;1.00
5304;DHT22;2674;49.722;10.892;2023-05-07T11:47:54;23.60;1.00
5304;DHT22;2674;49.722;10.892;2023-05-07T11:50:20;23.80;1.00
5304;DHT22;2674;49.722;10.892;2023-05-07T11:52:51;23.80;1.00
5304;DHT22;2674;49.722;10.892;2023-05-07T11:55:18;23.80;1.00
5304;DHT22;2674;49.722;10.892;2023-05-07T11:57:45;23.80;1.00
5304;DHT22;2674;49.722;10.892;2023-05-07T12:00:11;23.90;1.00
5304;DHT22;2674;49.722;10.892;2023-05-07T12:02:37;24.00;1.00
5304;DHT22;2674;49.722;10.892;2023-05-07T12:05:03;24.30;1.00
5304;DHT22;2674;49.722;10.892;2023-05-07T12:07:29;24.60;1.00
5304;DHT22;2674;49.722;10.892;2023-05-07T12:09:55;24.90;1.00
5304;DHT22;2674;49.722;10.892;2023-05-07T12:12:21;25.20;1.00
5304;DHT22;2674;49.722;10.892;2023-05-07T12:14:48;25.50;1.00
5304;DHT22;2674;49.722;10.892;2023-05-07T12:17:14;25.50;1.00
5304;DHT22;2674;49.722;10.892;2023-05-07T12:19:42;25.60;1.00
5304;DHT22;2674;49.722;10.892;2023-05-07T12:22:09;25.70;1.00
5304;DHT22;2674;49.722;10.892;2023-05-07T12:25:07;25.40;1.00
5304;DHT22;2674;49.722;10.892;2023-05-07T12:27:32;25.20;1.00
5304;DHT22;2674;49.722;10.892;2023-05-07T12:30:02;25.30;1.00
5304;DHT22;2674;49.722;10.892;2023-05-07T12:32:28;25.40;1.00
5304;DHT22;2674;49.722;10.892;2023-05-07T12:34:53;25.40;1.00
5304;DHT22;2674;49.722;10.892;2023-05-07T12:37:24;25.20;1.00
5304;DHT22;2674;49.722;10.892;2023-05-07T12:42:35;24.50;1.00
5304;DHT22;2674;49.722;10.892;2023-05-07T12:45:16;24.40;1.00
5304;DHT22;2674;49.722;10.892;2023-05-07T12:47:47;24.10;1.00
5304;DHT22;2674;49.722;10.892;2023-05-07T12:50:14;23.90;1.00
5304;DHT22;2674;49.722;10.892;2023-05-07T12:52:40;23.60;1.00
5304;DHT22;2674;49.722;10.892;2023-05-07T12:55:07;23.50;1.00
5304;DHT22;2674;49.722;10.892;2023-05-07T12:57:42;23.40;1.00
5304;DHT22;2674;49.722;10.892;2023-05-07T13:00:09;23.30;1.00
5304;DHT22;2674;49.722;10.892;2023-05-07T13:02:38;23.40;1.00
5304;DHT22;2674;49.722;10.892;2023-05-07T13:05:04;23.40;1.00
5304;DHT22;2674;49.722;10.892;2023-05-07T13:07:30;23.30;1.00
5304;DHT22;2674;49.722;10.892;2023-05-07T13:09:59;23.30;1.00
5304;DHT22;2674;49.722;10.892;2023-05-07T13:12:25;23.20;1.00
5304;DHT22;2674;49.722;10.892;2023-05-07T13:14:51;23.10;1.00
5304;DHT22;2674;49.722;10.892;2023-05-07T13:17:17;22.90;1.00
5304;DHT22;2674;49.722;10.892;2023-05-07T13:19:44;22.80;1.00
5304;DHT22;2674;49.722;10.892;2023-05-07T13:22:10;22.90;1.00
5304;DHT22;2674;49.722;10.892;2023-05-07T13:24:36;23.20;1.00
5304;DHT22;2674;49.722;10.892;2023-05-07T13:27:02;23.60;1.00
5304;DHT22;2674;49.722;10.892;2023-05-07T13:29:28;24.00;1.00
5304;DHT22;2674;49.722;10.892;2023-05-07T13:31:59;24.10;1.00
5304;DHT22;2674;49.722;10.892;2023-05-07T13:34:25;24.10;1.00
5304;DHT22;2674;49.722;10.892;2023-05-07T13:36:52;24.20;1.00
5304;DHT22;2674;49.722;10.892;2023-05-07T13:39:17;24.20;1.00
5304;DHT22;2674;49.722;10.892;2023-05-07T13:41:46;24.00;1.00
5304;DHT22;2674;49.722;10.892;2023-05-07T13:44:11;23.80;1.00
5304;DHT22;2674;49.722;10.892;2023-05-07T13:46:37;23.50;1.00
5304;DHT22;2674;49.722;10.892;2023-05-07T13:49:03;23.20;1.00
5304;DHT22;2674;49.722;10.892;2023-05-07T13:51:29;23.10;1.00
5304;DHT22;2674;49.722;10.892;2023-05-07T13:53:54;23.30;1.00
5304;DHT22;2674;49.722;10.892;2023-05-07T13:56:23;23.60;1.00
5304;DHT22;2674;49.722;10.892;2023-05-07T13:58:49;23.90;1.00
5304;DHT22;2674;49.722;10.892;2023-05-07T14:01:15;24.00;1.00
5304;DHT22;2674;49.722;10.892;2023-05-07T14:03:41;24.10;1.00
5304;DHT22;2674;49.722;10.892;2023-05-07T14:06:07;24.10;1.00
5304;DHT22;2674;49.722;10.892;2023-05-07T14:08:32;24.30;1.00
5304;DHT22;2674;49.722;10.892;2023-05-07T14:10:58;24.20;1.00
5304;DHT22;2674;49.722;10.892;2023-05-07T14:13:25;24.10;1.00
5304;DHT22;2674;49.722;10.892;2023-05-07T14:15:52;24.20;1.00
5304;DHT22;2674;49.722;10.892;2023-05-07T14:18:18;24.20;1.00
5304;DHT22;2674;49.722;10.892;2023-05-07T14:20:47;24.20;1.00
5304;DHT22;2674;49.722;10.892;2023-05-07T14:23:17;24.20;1.00
5304;DHT22;2674;49.722;10.892;2023-05-07T14:25:45;24.20;1.00
5304;DHT22;2674;49.722;10.892;2023-05-07T14:28:13;24.30;1.00
5304;DHT22;2674;49.722;10.892;2023-05-07T14:30:39;24.40;1.00
5304;DHT22;2674;49.722;10.892;2023-05-07T14:33:05;24.30;1.00
5304;DHT22;2674;49.722;10.892;2023-05-07T14:35:30;24.20;1.00
5304;DHT22;2674;49.722;10.892;2023-05-07T14:37:56;24.00;1.00
5304;DHT22;2674;49.722;10.892;2023-05-07T14:40:22;24.00;1.00
5304;DHT22;2674;49.722;10.892;2023-05-07T14:42:48;24.10;1.00
5304;DHT22;2674;49.722;10.892;2023-05-07T14:45:14;24.20;1.00
5304;DHT22;2674;49.722;10.892;2023-05-07T14:47:39;24.20;1.00
5304;DHT22;2674;49.722;10.892;2023-05-07T14:50:05;24.20;1.00
5304;DHT22;2674;49.722;10.892;2023-05-07T14:52:31;24.30;1.00
5304;DHT22;2674;49.722;10.892;2023-05-07T14:54:57;24.20;1.00
5304;DHT22;2674;49.722;10.892;2023-05-07T14:57:23;24.20;1.00
5304;DHT22;2674;49.722;10.892;2023-05-07T14:59:48;24.40;1.00
5304;DHT22;2674;49.722;10.892;2023-05-07T15:02:14;24.50;1.00
5304;DHT22;2674;49.722;10.892;2023-05-07T15:04:40;24.60;1.00
5304;DHT22;2674;49.722;10.892;2023-05-07T15:07:15;24.80;1.00
5304;DHT22;2674;49.722;10.892;2023-05-07T15:09:44;24.70;1.00
5304;DHT22;2674;49.722;10.892;2023-05-07T15:12:10;24.60;1.00
5304;DHT22;2674;49.722;10.892;2023-05-07T15:14:38;24.70;1.00
5304;DHT22;2674;49.722;10.892;2023-05-07T15:17:04;24.60;1.00
5304;DHT22;2674;49.722;10.892;2023-05-07T15:19:30;24.50;1.00
5304;DHT22;2674;49.722;10.892;2023-05-07T15:21:57;24.20;1.00
5304;DHT22;2674;49.722;10.892;2023-05-07T15:24:26;24.00;1.00
5304;DHT22;2674;49.722;10.892;2023-05-07T15:26:52;24.10;1.00
5304;DHT22;2674;49.722;10.892;2023-05-07T15:29:18;24.10;1.00
5304;DHT22;2674;49.722;10.892;2023-05-07T15:31:46;24.10;1.00
5304;DHT22;2674;49.722;10.892;2023-05-07T15:34:12;24.00;1.00
5304;DHT22;2674;49.722;10.892;2023-05-07T15:36:40;23.90;1.00
5304;DHT22;2674;49.722;10.892;2023-05-07T15:39:06;23.90;1.00
5304;DHT22;2674;49.722;10.892;2023-05-07T15:41:32;23.80;1.00
5304;DHT22;2674;49.722;10.892;2023-05-07T15:43:58;23.70;1.00
5304;DHT22;2674;49.722;10.892;2023-05-07T15:46:25;23.60;1.00
5304;DHT22;2674;49.722;10.892;2023-05-07T15:48:51;23.50;1.00
5304;DHT22;2674;49.722;10.892;2023-05-07T15:51:18;23.30;1.00
5304;DHT22;2674;49.722;10.892;2023-05-07T15:53:44;23.00;1.00
5304;DHT22;2674;49.722;10.892;2023-05-07T15:56:10;22.90;1.00
5304;DHT22;2674;49.722;10.892;2023-05-07T15:58:35;22.60;1.00
5304;DHT22;2674;49.722;10.892;2023-05-07T16:01:02;22.40;1.00
5304;DHT22;2674;49.722;10.892;2023-05-07T16:03:28;22.30;1.00
5304;DHT22;2674;49.722;10.892;2023-05-07T16:05:55;22.30;1.00
5304;DHT22;2674;49.722;10.892;2023-05-07T16:08:25;22.10;1.00
5304;DHT22;2674;49.722;10.892;2023-05-07T16:10:51;22.10;1.00
5304;DHT22;2674;49.722;10.892;2023-05-07T16:13:17;22.10;1.00
5304;DHT22;2674;49.722;10.892;2023-05-07T16:15:44;22.00;1.00